createdAt,value
2022-11-14T00:02:27.161Z,101609.31
2022-11-14T00:05:49.378Z,101605.75
2022-11-14T00:09:11.391Z,101608.28
2022-11-14T00:12:32.936Z,101613.50
2022-11-14T00:15:55.835Z,101598.81
2022-11-14T00:19:17.998Z,101600.63
2022-11-14T00:22:39.634Z,101596.47
2022-11-14T00:26:01.194Z,101588.72
2022-11-14T00:29:23.609Z,101586.19
2022-11-14T00:32:46.641Z,101584.44
2022-11-14T00:36:08.891Z,101576.69
2022-11-14T00:39:30.830Z,101577.59
2022-11-14T00:42:57.155Z,101570.72
2022-11-14T00:46:19.418Z,101576.00
2022-11-14T00:49:42.731Z,101563.16
2022-11-14T00:53:04.093Z,101561.56
2022-11-14T00:56:26.071Z,101558.16
2022-11-14T00:59:47.551Z,101549.66
2022-11-14T01:03:09.146Z,101550.63
2022-11-14T01:06:32.331Z,101541.28
2022-11-14T01:09:56.180Z,101539.75
2022-11-14T01:13:19.442Z,101545.03
2022-11-14T01:16:40.876Z,101534.78
2022-11-14T01:20:03.149Z,101527.00
2022-11-14T01:23:26.268Z,101522.06
2022-11-14T01:26:48.381Z,101518.56
2022-11-14T01:30:11.014Z,101516.03
2022-11-14T01:33:33.120Z,101506.53
2022-11-14T01:36:57.052Z,101504.00
2022-11-14T01:40:20.335Z,101500.63
2022-11-14T01:43:43.031Z,101497.50
2022-11-14T01:47:05.815Z,101496.66
2022-11-14T01:50:29.218Z,101487.28
2022-11-14T01:53:56.441Z,101486.31
2022-11-14T01:57:24.279Z,101481.97
2022-11-14T02:00:45.848Z,101481.97
2022-11-14T02:04:12.788Z,101464.78
2022-11-14T02:07:40.655Z,101462.94
2022-11-14T02:11:02.699Z,101459.50
2022-11-14T02:14:25.618Z,101447.22
2022-11-14T02:17:47.024Z,101440.38
2022-11-14T02:21:11.402Z,101434.34
2022-11-14T02:24:33.162Z,101424.84
2022-11-14T02:27:58.053Z,101417.88
2022-11-14T02:31:20.079Z,101436.75
2022-11-14T02:35:22.529Z,101423.69
2022-11-14T02:38:45.590Z,101414.09
2022-11-14T02:42:07.392Z,101414.91
2022-11-14T02:45:31.936Z,101400.25
2022-11-14T02:48:53.289Z,101398.59
2022-11-14T02:52:18.589Z,101400.41
2022-11-14T02:55:41.691Z,101393.75
2022-11-14T02:59:03.203Z,101390.25
2022-11-14T03:02:24.821Z,101396.41
2022-11-14T03:05:46.422Z,101386.25
2022-11-14T03:09:08.406Z,101389.75
2022-11-14T03:12:31.304Z,101380.22
2022-11-14T03:15:52.830Z,101382.03
2022-11-14T03:19:14.828Z,101376.16
2022-11-14T03:22:36.322Z,101373.34
2022-11-14T03:26:02.104Z,101368.13
2022-11-14T03:29:25.049Z,101371.69
2022-11-14T03:32:46.876Z,101380.34
2022-11-14T03:36:10.072Z,101369.09
2022-11-14T03:39:32.580Z,101358.81
2022-11-14T03:42:54.071Z,101356.31
2022-11-14T03:46:16.995Z,101350.47
2022-11-14T03:49:38.906Z,101348.16
2022-11-14T03:53:01.156Z,101350.06
2022-11-14T03:56:22.852Z,101345.03
2022-11-14T03:59:45.026Z,101343.44
2022-11-14T04:03:08.540Z,101347.78
2022-11-14T04:06:30.288Z,101340.00
2022-11-14T04:09:52.380Z,101330.53
2022-11-14T04:13:13.803Z,101340.09
2022-11-14T04:16:35.475Z,101332.28
2022-11-14T04:19:58.819Z,101327.09
2022-11-14T04:23:21.202Z,101320.41
2022-11-14T04:26:42.659Z,101315.41
2022-11-14T04:30:05.286Z,101319.75
2022-11-14T04:33:26.886Z,101319.78
2022-11-14T04:36:51.159Z,101315.41
2022-11-14T04:40:13.233Z,101316.31
2022-11-14T04:43:36.879Z,101305.84
2022-11-14T04:46:58.420Z,101299.72
2022-11-14T04:50:20.072Z,101312.44
2022-11-14T04:53:42.999Z,101305.59
2022-11-14T04:57:04.789Z,101308.31
2022-11-14T05:00:30.221Z,101300.56
2022-11-14T05:03:52.167Z,101295.38
2022-11-14T05:07:14.231Z,101298.75
2022-11-14T05:10:37.281Z,101296.28
2022-11-14T05:13:58.918Z,101297.06
2022-11-14T05:17:20.692Z,101294.56
2022-11-14T05:20:42.257Z,101286.72
2022-11-14T05:24:04.069Z,101291.13
2022-11-14T05:27:27.362Z,101286.84
2022-11-14T05:30:49.043Z,101285.75
2022-11-14T05:34:11.019Z,101284.97
2022-11-14T05:37:32.787Z,101287.75
2022-11-14T05:40:54.390Z,101287.03
2022-11-14T05:44:17.429Z,101282.72
2022-11-14T05:47:39.343Z,101285.31
2022-11-14T05:51:04.916Z,101291.44
2022-11-14T05:54:26.507Z,101285.38
2022-11-14T05:57:48.535Z,101283.59
2022-11-14T06:01:13.928Z,101274.31
2022-11-14T06:04:35.490Z,101264.72
2022-11-14T06:07:57.714Z,101268.19
2022-11-14T06:11:21.284Z,101265.63
2022-11-14T06:14:43.272Z,101262.44
2022-11-14T06:18:06.259Z,101265.06
2022-11-14T06:21:28.012Z,101263.41
2022-11-14T06:24:49.756Z,101265.06
2022-11-14T06:28:11.360Z,101273.66
2022-11-14T06:31:33.161Z,101268.47
2022-11-14T06:34:56.113Z,101266.91
2022-11-14T06:38:18.068Z,101271.31
2022-11-14T06:41:41.968Z,101264.38
2022-11-14T06:45:03.735Z,101268.56
2022-11-14T06:48:26.076Z,101271.16
2022-11-14T06:51:48.867Z,101275.41
2022-11-14T06:55:10.779Z,101274.53
2022-11-14T06:58:35.521Z,101281.38
2022-11-14T07:01:57.484Z,101275.31
2022-11-14T07:05:19.426Z,101276.22
2022-11-14T07:08:42.529Z,101271.22
2022-11-14T07:12:06.984Z,101277.97
2022-11-14T07:15:29.431Z,101276.22
2022-11-14T07:18:50.901Z,101278.66
2022-11-14T07:22:12.756Z,101283.06
2022-11-14T07:25:35.742Z,101277.97
2022-11-14T07:29:02.104Z,101272.00
2022-11-14T07:32:24.538Z,101272.13
2022-11-14T07:35:45.969Z,101266.97
2022-11-14T07:39:07.980Z,101272.91
2022-11-14T07:42:31.356Z,101271.81
2022-11-14T07:45:53.367Z,101263.03
2022-11-14T07:49:14.833Z,101257.97
2022-11-14T07:52:36.787Z,101264.97
2022-11-14T07:56:02.546Z,101253.59
2022-11-14T07:59:25.343Z,101264.97
2022-11-14T08:02:47.292Z,101269.00
2022-11-14T08:06:13.310Z,101265.63
2022-11-14T08:09:35.272Z,101258.78
2022-11-14T08:13:25.283Z,101253.78
2022-11-14T08:16:43.933Z,101259.78
2022-11-14T08:20:07.875Z,101261.25
2022-11-14T08:23:29.234Z,101261.13
2022-11-14T08:26:51.195Z,101258.22
2022-11-14T08:30:14.479Z,101259.41
2022-11-14T08:33:37.783Z,101248.59
2022-11-14T08:36:59.698Z,101243.66
2022-11-14T08:40:21.187Z,101238.19
2022-11-14T08:43:43.053Z,101245.31
2022-11-14T08:47:05.152Z,101247.00
2022-11-14T08:50:28.332Z,101231.91
2022-11-14T08:53:51.498Z,101249.38
2022-11-14T08:57:15.250Z,101253.34
2022-11-14T09:00:37.027Z,101261.25
2022-11-14T09:03:59.966Z,101259.31
2022-11-14T09:07:23.393Z,101255.28
2022-11-14T09:10:45.201Z,101256.53
2022-11-14T09:14:06.715Z,101254.31
2022-11-14T09:17:28.195Z,101257.19
2022-11-14T09:20:49.673Z,101260.31
2022-11-14T09:24:12.707Z,101253.97
2022-11-14T09:27:34.376Z,101260.81
2022-11-14T09:31:01.999Z,101273.06
2022-11-14T09:34:23.683Z,101273.41
2022-11-14T09:37:45.083Z,101276.53
2022-11-14T09:41:24.869Z,101280.19
2022-11-14T09:44:55.263Z,101294.19
2022-11-14T09:48:21.333Z,101296.97
2022-11-14T09:51:52.049Z,101305.28
2022-11-14T09:55:18.972Z,101315.03
2022-11-14T09:58:43.474Z,101297.22
2022-11-14T10:02:32.665Z,101298.25
2022-11-14T10:06:13.717Z,101297.88
2022-11-14T10:09:52.574Z,101298.97
2022-11-14T10:13:39.324Z,101303.41
2022-11-14T10:17:21.090Z,101296.91
2022-11-14T10:20:48.885Z,101293.78
2022-11-14T10:24:32.334Z,101305.38
2022-11-14T10:28:16.841Z,101305.00
2022-11-14T10:31:50.122Z,101312.41
2022-11-14T10:35:17.463Z,101316.59
2022-11-14T10:38:44.945Z,101317.00
2022-11-14T10:42:15.686Z,101317.06
2022-11-14T10:45:44.545Z,101316.50
2022-11-14T10:49:17.162Z,101318.34
2022-11-14T10:52:44.040Z,101319.66
2022-11-14T10:56:06.098Z,101315.47
2022-11-14T10:59:28.096Z,101326.53
2022-11-14T11:02:53.647Z,101315.31
2022-11-14T11:06:27.374Z,101334.59
2022-11-14T11:10:18.715Z,101326.38
2022-11-14T11:13:51.877Z,101324.25
2022-11-14T11:17:23.164Z,101337.25
2022-11-14T11:20:44.707Z,101332.03
2022-11-14T11:24:07.486Z,101335.06
2022-11-14T11:27:31.469Z,101334.03
2022-11-14T11:30:58.140Z,101325.81
2022-11-14T11:34:25.988Z,101329.59
2022-11-14T11:37:54.644Z,101328.63
2022-11-14T11:45:17.547Z,101312.72
2022-11-14T11:48:40.761Z,101310.03
2022-11-14T11:52:06.939Z,101310.59
2022-11-14T11:55:31.958Z,101312.72
2022-11-14T11:59:01.340Z,101313.75
2022-11-14T12:02:27.680Z,101311.59
2022-11-14T12:06:04.654Z,101312.53
2022-11-14T12:10:08.336Z,101311.03
2022-11-14T12:13:46.488Z,101315.34
2022-11-14T12:17:37.325Z,101307.59
2022-11-14T12:21:36.577Z,101318.84
2022-11-14T12:25:35.851Z,101312.50
2022-11-14T12:29:17.962Z,101326.84
2022-11-14T12:32:47.998Z,101321.09
2022-11-14T12:36:12.775Z,101318.59
2022-11-14T12:39:34.744Z,101320.97
2022-11-14T12:42:57.747Z,101312.44
2022-11-14T12:46:19.479Z,101313.47
2022-11-14T12:50:06.659Z,101314.03
2022-11-14T12:53:44.708Z,101309.53
2022-11-14T12:57:11.198Z,101295.00
2022-11-14T13:00:35.994Z,101291.28
2022-11-14T13:04:17.776Z,101293.41
2022-11-14T13:07:52.226Z,101298.63
2022-11-14T13:11:55.316Z,101300.84
2022-11-14T13:15:49.204Z,101290.78
2022-11-14T13:19:39.680Z,101287.47
2022-11-14T13:23:02.785Z,101287.53
2022-11-14T13:26:55.106Z,101287.22
2022-11-14T13:30:17.429Z,101285.75
2022-11-14T13:33:42.783Z,101278.53
2022-11-14T13:37:20.004Z,101281.31
2022-11-14T13:40:53.618Z,101286.00
2022-11-14T13:44:50.057Z,101274.09
2022-11-14T13:48:44.812Z,101270.94
2022-11-14T13:52:09.474Z,101263.34
2022-11-14T13:55:39.907Z,101259.91
2022-11-14T13:59:56.697Z,101253.31
2022-11-14T14:03:38.298Z,101247.38
2022-11-14T14:07:12.943Z,101245.50
2022-11-14T14:10:44.207Z,101239.03
2022-11-14T14:14:32.242Z,101243.22
2022-11-14T14:18:09.570Z,101224.88
2022-11-14T14:21:45.069Z,101222.28
2022-11-14T14:25:24.022Z,101215.91
2022-11-14T14:28:56.347Z,101214.31
2022-11-14T14:32:21.525Z,101205.88
2022-11-14T14:35:54.680Z,101205.47
2022-11-14T14:39:19.968Z,101200.47
2022-11-14T14:42:47.213Z,101190.78
2022-11-14T14:46:13.823Z,101192.13
2022-11-14T14:49:38.133Z,101183.91
2022-11-14T14:53:05.134Z,101180.88
2022-11-14T14:56:30.461Z,101179.53
2022-11-14T15:00:00.963Z,101182.59
2022-11-14T15:03:23.835Z,101167.63
2022-11-14T15:06:48.202Z,101157.50
2022-11-14T15:10:24.456Z,101151.63
2022-11-14T15:13:48.148Z,101144.00
2022-11-14T15:17:11.610Z,101145.59
2022-11-14T15:20:33.292Z,101140.09
2022-11-14T15:24:03.724Z,101150.84
2022-11-14T15:27:26.390Z,101145.69
2022-11-14T15:30:59.235Z,101143.13
2022-11-14T15:34:30.692Z,101134.59
2022-11-14T15:38:28.895Z,101116.69
2022-11-14T15:41:45.309Z,101113.59
2022-11-14T15:48:35.647Z,101103.72
2022-11-14T15:51:59.848Z,101099.28
2022-11-14T15:55:24.045Z,101100.41
2022-11-14T15:58:49.312Z,101094.63
2022-11-14T16:02:17.541Z,101086.31
2022-11-14T16:05:40.463Z,101079.56
2022-11-14T16:09:02.056Z,101070.19
2022-11-14T16:12:23.838Z,101070.50
2022-11-14T16:15:45.616Z,101068.09
2022-11-14T16:19:08.112Z,101061.50
2022-11-14T16:22:31.335Z,101061.59
2022-11-14T16:25:53.394Z,101060.06
2022-11-14T16:29:16.472Z,101061.06
2022-11-14T16:32:38.781Z,101061.16
2022-11-14T16:36:00.657Z,101063.13
2022-11-14T16:39:24.022Z,101066.66
2022-11-14T16:42:46.293Z,101056.63
2022-11-14T16:46:09.098Z,101064.16
2022-11-14T16:49:33.002Z,101064.81
2022-11-14T16:52:55.187Z,101059.44
2022-11-14T16:56:18.264Z,101046.06
2022-11-14T16:59:39.980Z,101039.44
2022-11-14T17:03:01.738Z,101026.63
2022-11-14T17:06:23.726Z,101033.72
2022-11-14T17:09:45.566Z,101022.94
2022-11-14T17:13:09.022Z,101021.94
2022-11-14T17:16:30.780Z,101029.97
2022-11-14T17:19:52.996Z,101029.38
2022-11-14T17:23:14.647Z,101019.25
2022-11-14T17:26:36.665Z,101022.91
2022-11-14T17:29:59.647Z,101017.81
2022-11-14T17:33:21.130Z,101006.75
2022-11-14T17:36:43.166Z,101012.03
2022-11-14T17:40:05.944Z,101003.75
2022-11-14T17:43:34.312Z,101002.16
2022-11-14T17:47:00.104Z,100993.72
2022-11-14T17:50:21.816Z,100992.09
2022-11-14T17:53:43.991Z,100985.50
2022-11-14T17:57:05.829Z,100983.91
2022-11-14T18:00:27.267Z,100971.19
2022-11-14T18:03:50.602Z,100967.06
2022-11-14T18:07:12.239Z,100965.50
2022-11-14T18:10:34.149Z,100960.47
2022-11-14T18:13:56.472Z,100957.28
2022-11-14T18:17:18.102Z,100957.28
2022-11-14T18:20:41.269Z,100959.13
2022-11-14T18:24:03.045Z,100954.25
2022-11-14T18:27:27.506Z,100953.69
2022-11-14T18:30:55.683Z,100937.34
2022-11-14T18:34:17.736Z,100928.00
2022-11-14T18:37:40.634Z,100920.31
2022-11-14T18:41:04.296Z,100909.19
2022-11-14T18:44:25.799Z,100910.09
2022-11-14T18:47:47.810Z,100895.56
2022-11-14T18:51:13.642Z,100893.97
2022-11-14T18:54:36.531Z,100886.38
2022-11-14T18:57:58.561Z,100890.69
2022-11-14T19:01:24.861Z,100893.53
2022-11-14T19:04:46.728Z,100890.25
2022-11-14T19:08:08.907Z,100892.16
2022-11-14T19:11:50.271Z,100891.50
2022-11-14T19:15:12.105Z,100880.59
2022-11-14T19:18:34.158Z,100876.34
2022-11-14T19:21:59.201Z,100873.00
2022-11-14T19:25:20.782Z,100874.06
2022-11-14T19:28:44.641Z,100862.03
2022-11-14T19:32:09.620Z,100867.97
2022-11-14T19:35:31.418Z,100858.72
2022-11-14T19:38:55.755Z,100867.69
2022-11-14T19:42:17.577Z,100865.25
2022-11-14T19:45:41.273Z,100866.44
2022-11-14T19:49:03.878Z,100850.50
2022-11-14T19:52:26.109Z,100832.59
2022-11-14T19:55:47.705Z,100852.63
2022-11-14T19:59:14.772Z,100847.78
2022-11-14T20:02:40.476Z,100845.19
2022-11-14T20:06:02.540Z,100853.16
2022-11-14T20:09:24.328Z,100854.84
2022-11-14T20:12:46.207Z,100850.59
2022-11-14T20:16:20.104Z,100842.97
2022-11-14T20:19:42.819Z,100842.97
2022-11-14T20:23:06.152Z,100835.06
2022-11-14T20:26:27.838Z,100830.13
2022-11-14T20:29:49.606Z,100837.88
2022-11-14T20:33:11.755Z,100834.50
2022-11-14T20:36:56.492Z,100836.47
2022-11-14T20:40:16.834Z,100831.88
2022-11-14T20:43:38.960Z,100830.72
2022-11-14T20:47:00.755Z,100822.06
2022-11-14T20:50:22.468Z,100822.97
2022-11-14T20:53:46.085Z,100828.28
2022-11-14T20:57:07.897Z,100825.44
2022-11-14T21:00:29.449Z,100830.53
2022-11-14T21:03:51.100Z,100823.81
2022-11-14T21:07:12.621Z,100825.75
2022-11-14T21:10:47.766Z,100818.56
2022-11-14T21:14:11.714Z,100817.72
2022-11-14T21:17:33.250Z,100815.91
2022-11-14T21:21:04.082Z,100815.22
2022-11-14T21:24:25.672Z,100805.81
2022-11-14T21:27:48.354Z,100799.03
2022-11-14T21:31:19.024Z,100797.34
2022-11-14T21:34:41.156Z,100794.94
2022-11-14T21:38:03.021Z,100794.84
2022-11-14T21:41:28.138Z,100790.50
2022-11-14T21:44:51.602Z,100782.16
2022-11-14T21:48:13.468Z,100775.31
2022-11-14T21:51:35.239Z,100775.41
2022-11-14T21:54:56.956Z,100772.41
2022-11-14T21:58:18.751Z,100776.78
2022-11-14T22:02:01.655Z,100775.06
2022-11-14T22:05:23.418Z,100773.16
2022-11-14T22:08:45.387Z,100778.31
2022-11-14T22:12:08.626Z,100772.50
2022-11-14T22:15:30.301Z,100772.44
2022-11-14T22:18:55.714Z,100770.13
2022-11-14T22:22:19.865Z,100759.53
2022-11-14T22:25:41.519Z,100750.94
2022-11-14T22:29:03.234Z,100755.78
2022-11-14T22:32:24.789Z,100772.75
2022-11-14T22:35:48.491Z,100767.88
2022-11-14T22:39:10.220Z,100767.16
2022-11-14T22:42:31.851Z,100753.44
2022-11-14T22:45:54.175Z,100759.22
2022-11-14T22:49:20.698Z,100775.78
2022-11-14T22:52:44.233Z,100764.59
2022-11-14T22:56:11.629Z,100753.19
2022-11-14T22:59:33.517Z,100763.50
2022-11-14T23:02:55.258Z,100757.44
2022-11-14T23:06:19.826Z,100758.81
2022-11-14T23:09:43.968Z,100748.47
2022-11-14T23:13:07.113Z,100755.44
2022-11-14T23:16:31.361Z,100749.50
2022-11-14T23:19:52.698Z,100747.34
2022-11-14T23:23:15.728Z,100751.41
2022-11-14T23:26:38.822Z,100749.16
2022-11-14T23:30:00.761Z,100745.97
2022-11-14T23:33:22.481Z,100737.03
2022-11-14T23:36:43.979Z,100741.50
2022-11-14T23:40:07.122Z,100741.78
2022-11-14T23:43:31.678Z,100741.91
2022-11-14T23:46:53.592Z,100733.47
2022-11-14T23:50:16.131Z,100732.50
2022-11-14T23:53:38.205Z,100719.88
2022-11-14T23:57:04.081Z,100724.75
